createdAt,value
2022-12-11T00:00:26.871Z,3.05
2022-12-11T00:01:23.577Z,3.22
2022-12-11T00:02:20.769Z,3.22
2022-12-11T00:03:18.281Z,3.17
2022-12-11T00:04:14.986Z,3.20
2022-12-11T00:05:11.840Z,3.15
2022-12-11T00:06:11.107Z,3.20
2022-12-11T00:07:07.652Z,3.22
2022-12-11T00:08:04.434Z,2.97
2022-12-11T00:09:01.040Z,3.08
2022-12-11T00:09:57.633Z,2.97
2022-12-11T00:10:54.238Z,3.15
2022-12-11T00:11:50.900Z,3.33
2022-12-11T00:12:47.503Z,3.20
2022-12-11T00:13:44.356Z,4.15
2022-12-11T00:14:40.895Z,3.50
2022-12-11T00:15:38.323Z,3.83
2022-12-11T00:16:37.268Z,4.05
2022-12-11T00:17:33.952Z,3.92
2022-12-11T00:18:30.630Z,2.90
2022-12-11T00:19:27.159Z,3.70
2022-12-11T00:20:23.795Z,3.58
2022-12-11T00:21:20.423Z,3.38
2022-12-11T00:22:17.064Z,3.30
2022-12-11T00:23:13.687Z,3.58
2022-12-11T00:24:10.724Z,3.45
2022-12-11T00:25:07.993Z,3.80
2022-12-11T00:26:10.332Z,3.55
2022-12-11T00:27:07.975Z,3.30
2022-12-11T00:28:04.712Z,3.70
2022-12-11T00:29:01.491Z,3.05
2022-12-11T00:29:58.055Z,3.60
2022-12-11T00:30:54.706Z,3.33
2022-12-11T00:31:51.456Z,2.45
2022-12-11T00:32:48.147Z,3.38
2022-12-11T00:33:45.780Z,3.33
2022-12-11T00:34:42.411Z,3.28
2022-12-11T00:35:40.059Z,3.72
2022-12-11T00:36:39.777Z,3.92
2022-12-11T00:37:39.561Z,3.78
2022-12-11T00:38:36.189Z,3.03
2022-12-11T00:39:32.809Z,3.30
2022-12-11T00:40:29.396Z,3.70
2022-12-11T00:41:25.971Z,3.30
2022-12-11T00:42:22.595Z,3.50
2022-12-11T00:43:19.189Z,3.20
2022-12-11T00:44:15.739Z,3.60
2022-12-11T00:45:12.580Z,4.20
2022-12-11T00:46:10.216Z,3.88
2022-12-11T00:47:06.974Z,3.20
2022-12-11T00:48:03.830Z,4.38
2022-12-11T00:49:00.401Z,3.45
2022-12-11T00:49:57.014Z,4.18
2022-12-11T00:50:53.877Z,4.28
2022-12-11T00:51:50.523Z,3.83
2022-12-11T00:52:47.345Z,3.35
2022-12-11T00:53:44.372Z,2.78
2022-12-11T00:54:40.991Z,3.13
2022-12-11T00:55:39.684Z,3.00
2022-12-11T00:56:36.302Z,3.13
2022-12-11T00:57:32.981Z,2.85
2022-12-11T00:58:29.582Z,2.80
2022-12-11T00:59:28.553Z,3.65
2022-12-11T01:00:25.282Z,3.55
2022-12-11T01:01:23.782Z,3.00
2022-12-11T01:02:20.424Z,3.38
2022-12-11T01:03:17.594Z,3.85
2022-12-11T01:04:14.197Z,4.00
2022-12-11T01:05:11.226Z,3.85
2022-12-11T01:06:08.709Z,3.78
2022-12-11T01:07:05.377Z,3.65
2022-12-11T01:08:02.501Z,4.35
2022-12-11T01:09:17.382Z,4.22
2022-12-11T01:10:26.601Z,4.43
2022-12-11T01:11:23.232Z,4.57
2022-12-11T01:12:19.852Z,4.25
2022-12-11T01:13:16.595Z,4.20
2022-12-11T01:14:13.435Z,3.92
2022-12-11T01:15:12.107Z,4.13
2022-12-11T01:16:15.975Z,3.10
2022-12-11T01:17:12.648Z,4.18
2022-12-11T01:18:11.759Z,4.25
2022-12-11T01:19:09.020Z,3.92
2022-12-11T01:20:06.308Z,3.33
2022-12-11T01:21:07.835Z,2.65
2022-12-11T01:22:04.484Z,3.38
2022-12-11T01:23:01.143Z,3.60
2022-12-11T01:23:57.757Z,3.20
2022-12-11T01:24:54.388Z,4.63
2022-12-11T01:25:51.010Z,4.97
2022-12-11T01:26:47.666Z,4.70
2022-12-11T01:27:44.312Z,5.07
2022-12-11T01:28:42.299Z,3.60
2022-12-11T01:29:38.918Z,3.88
2022-12-11T01:30:37.139Z,5.63
2022-12-11T01:31:34.142Z,4.22
2022-12-11T01:32:30.872Z,4.07
2022-12-11T01:33:27.674Z,3.80
2022-12-11T01:34:24.253Z,3.50
2022-12-11T01:35:21.023Z,3.67
2022-12-11T01:36:20.605Z,3.40
2022-12-11T01:37:17.167Z,4.43
2022-12-11T01:38:13.772Z,4.32
2022-12-11T01:39:10.315Z,4.97
2022-12-11T01:40:08.541Z,4.35
2022-12-11T01:41:05.263Z,4.20
2022-12-11T01:42:02.024Z,3.60
2022-12-11T01:42:58.627Z,4.38
2022-12-11T01:43:59.549Z,3.88
2022-12-11T01:45:14.805Z,4.00
2022-12-11T01:46:11.449Z,3.47
2022-12-11T01:47:08.056Z,3.38
2022-12-11T01:48:15.259Z,3.53
2022-12-11T01:49:15.257Z,3.30
2022-12-11T01:50:12.180Z,2.67
2022-12-11T01:51:08.795Z,2.80
2022-12-11T01:52:15.427Z,2.50
2022-12-11T01:53:17.640Z,3.45
2022-12-11T01:54:17.457Z,4.70
2022-12-11T01:55:14.989Z,3.92
2022-12-11T01:56:12.004Z,2.80
2022-12-11T01:57:11.402Z,3.67
2022-12-11T01:58:10.239Z,3.58
2022-12-11T01:59:08.975Z,3.42
2022-12-11T02:00:06.290Z,2.83
2022-12-11T02:01:03.416Z,2.30
2022-12-11T02:02:15.242Z,3.20
2022-12-11T02:03:12.268Z,2.10
2022-12-11T02:04:11.048Z,1.60
2022-12-11T02:05:09.113Z,1.52
2022-12-11T02:06:06.205Z,1.20
2022-12-11T02:07:03.825Z,1.60
2022-12-11T02:08:03.111Z,1.02
2022-12-11T02:09:00.884Z,1.40
2022-12-11T02:09:57.481Z,1.20
2022-12-11T02:11:20.949Z,1.30
2022-12-11T02:12:34.219Z,1.65
2022-12-11T02:14:00.261Z,1.60
2022-12-11T02:15:11.548Z,1.42
2022-12-11T02:16:18.013Z,1.50
2022-12-11T02:17:21.786Z,1.35
2022-12-11T02:18:21.352Z,1.52
2022-12-11T02:19:51.336Z,1.50
2022-12-11T02:21:09.010Z,1.40
2022-12-11T02:22:11.563Z,1.25
2022-12-11T02:23:43.759Z,1.20
2022-12-11T02:24:55.394Z,1.58
2022-12-11T02:26:04.010Z,0.90
2022-12-11T02:27:22.082Z,1.10
2022-12-11T02:28:31.187Z,0.98
2022-12-11T02:29:39.035Z,1.15
2022-12-11T02:30:38.629Z,1.05
2022-12-11T02:32:00.989Z,1.00
2022-12-11T02:32:59.307Z,0.80
2022-12-11T02:34:10.591Z,1.00
2022-12-11T02:35:24.225Z,0.80
2022-12-11T02:36:25.381Z,0.70
2022-12-11T02:37:24.873Z,0.95
2022-12-11T02:38:28.370Z,0.63
2022-12-11T02:39:27.706Z,0.77
2022-12-11T02:40:28.429Z,0.80
2022-12-11T02:41:27.312Z,0.60
2022-12-11T02:42:29.767Z,0.68
2022-12-11T02:44:30.572Z,0.70
2022-12-11T02:45:28.706Z,0.80
2022-12-11T02:46:27.060Z,0.85
2022-12-11T02:47:27.224Z,0.70
2022-12-11T02:48:24.455Z,0.70
2022-12-11T02:49:23.280Z,0.70
2022-12-11T02:50:23.860Z,0.80
2022-12-11T02:51:26.183Z,0.60
2022-12-11T02:52:25.670Z,0.90
2022-12-11T02:53:26.190Z,0.70
2022-12-11T02:54:28.211Z,0.68
2022-12-11T02:55:27.367Z,0.77
2022-12-11T02:56:30.709Z,0.70
2022-12-11T02:57:38.289Z,0.80
2022-12-11T02:58:39.908Z,0.77
2022-12-11T02:59:40.806Z,0.90
2022-12-11T03:00:37.686Z,0.60
2022-12-11T03:01:34.433Z,0.80
2022-12-11T03:02:31.355Z,0.70
2022-12-11T03:03:30.742Z,0.90
2022-12-11T03:04:29.039Z,0.55
2022-12-11T03:05:27.269Z,0.80
2022-12-11T03:06:32.200Z,1.02
2022-12-11T03:07:33.965Z,0.65
2022-12-11T03:08:31.472Z,0.75
2022-12-11T03:09:29.623Z,0.65
2022-12-11T03:10:26.293Z,0.90
2022-12-11T03:11:23.001Z,0.80
2022-12-11T03:12:25.584Z,0.98
2022-12-11T03:13:23.099Z,1.00
2022-12-11T03:14:20.000Z,1.00
2022-12-11T03:15:20.574Z,1.08
2022-12-11T03:16:37.045Z,1.10
2022-12-11T03:17:43.935Z,1.15
2022-12-11T03:18:52.563Z,1.25
2022-12-11T03:20:12.808Z,0.90
2022-12-11T03:21:25.239Z,1.23
2022-12-11T03:22:39.117Z,0.90
2022-12-11T03:23:48.344Z,0.98
2022-12-11T03:24:51.131Z,1.05
2022-12-11T03:25:55.726Z,1.02
2022-12-11T03:27:01.725Z,1.08
2022-12-11T03:28:13.484Z,1.00
2022-12-11T03:29:21.045Z,1.00
2022-12-11T03:30:20.898Z,1.02
2022-12-11T03:31:34.626Z,1.10
2022-12-11T03:32:40.870Z,1.08
2022-12-11T03:33:44.138Z,0.80
2022-12-11T03:34:40.670Z,1.17
2022-12-11T03:35:37.184Z,1.80
2022-12-11T03:36:37.805Z,1.13
2022-12-11T03:37:39.184Z,1.30
2022-12-11T03:38:51.018Z,1.50
2022-12-11T03:39:52.654Z,1.35
2022-12-11T03:40:54.821Z,1.20
2022-12-11T03:41:53.406Z,0.90
2022-12-11T03:42:53.582Z,1.00
2022-12-11T03:43:53.466Z,1.10
2022-12-11T03:44:52.693Z,1.40
2022-12-11T03:45:52.486Z,1.05
2022-12-11T03:46:51.716Z,0.88
2022-12-11T03:47:49.994Z,1.20
2022-12-11T03:48:48.701Z,1.20
2022-12-11T03:49:47.877Z,1.15
2022-12-11T03:50:46.870Z,1.10
2022-12-11T03:51:46.742Z,1.52
2022-12-11T03:52:46.335Z,1.40
2022-12-11T03:53:44.090Z,1.23
2022-12-11T03:54:43.302Z,1.52
2022-12-11T03:55:41.577Z,1.27
2022-12-11T03:56:39.862Z,1.15
2022-12-11T03:57:38.153Z,1.33
2022-12-11T03:58:34.719Z,1.00
2022-12-11T03:59:31.410Z,1.00
2022-12-11T04:00:29.078Z,1.40
2022-12-11T04:01:25.709Z,1.05
2022-12-11T04:02:22.333Z,1.00
2022-12-11T04:03:18.993Z,1.88
2022-12-11T04:04:15.727Z,1.45
2022-12-11T04:05:12.765Z,1.38
2022-12-11T04:06:09.496Z,1.77
2022-12-11T04:07:06.770Z,1.58
2022-12-11T04:08:03.478Z,1.30
2022-12-11T04:09:00.151Z,1.65
2022-12-11T04:09:57.041Z,1.40
2022-12-11T04:11:12.460Z,1.30
2022-12-11T04:12:09.095Z,1.95
2022-12-11T04:13:06.190Z,1.67
2022-12-11T04:14:27.636Z,1.73
2022-12-11T04:15:24.267Z,1.42
2022-12-11T04:16:20.895Z,1.45
2022-12-11T04:17:37.666Z,1.90
2022-12-11T04:18:53.800Z,1.98
2022-12-11T04:20:08.559Z,1.75
2022-12-11T04:21:24.062Z,1.67
2022-12-11T04:22:39.040Z,1.50
2022-12-11T04:23:53.961Z,1.90
2022-12-11T04:24:50.938Z,1.90
2022-12-11T04:25:47.585Z,1.50
2022-12-11T04:26:45.771Z,1.80
2022-12-11T04:27:51.578Z,1.95
2022-12-11T04:28:49.367Z,1.70
2022-12-11T04:29:46.021Z,1.58
2022-12-11T04:30:48.832Z,2.03
2022-12-11T04:31:45.974Z,2.03
2022-12-11T04:32:42.582Z,2.38
2022-12-11T04:33:39.265Z,1.75
2022-12-11T04:34:35.873Z,2.45
2022-12-11T04:35:32.820Z,1.83
2022-12-11T04:36:29.410Z,2.20
2022-12-11T04:37:28.705Z,2.25
2022-12-11T04:38:25.958Z,1.70
2022-12-11T04:39:22.566Z,2.17
2022-12-11T04:40:20.291Z,2.60
2022-12-11T04:41:17.524Z,2.15
2022-12-11T04:42:14.111Z,2.13
2022-12-11T04:43:10.779Z,2.20
2022-12-11T04:44:07.891Z,2.00
2022-12-11T04:45:05.921Z,2.00
2022-12-11T04:46:07.250Z,2.17
2022-12-11T04:47:03.926Z,2.08
2022-12-11T04:48:00.537Z,1.90
2022-12-11T04:48:58.117Z,2.53
2022-12-11T04:49:55.001Z,2.45
2022-12-11T04:50:51.562Z,2.13
2022-12-11T04:51:48.107Z,2.83
2022-12-11T04:52:44.651Z,2.65
2022-12-11T04:53:41.530Z,2.63
2022-12-11T04:54:38.227Z,2.63
2022-12-11T04:55:34.768Z,2.38
2022-12-11T04:56:31.430Z,2.42
2022-12-11T04:57:28.044Z,2.80
2022-12-11T04:58:25.811Z,2.35
2022-12-11T04:59:22.460Z,2.13
2022-12-11T05:00:19.099Z,2.13
2022-12-11T05:01:19.451Z,2.40
2022-12-11T05:02:17.005Z,2.10
2022-12-11T05:03:13.795Z,2.40
2022-12-11T05:04:10.373Z,2.08
2022-12-11T05:05:10.070Z,2.42
2022-12-11T05:06:08.584Z,2.28
2022-12-11T05:07:05.373Z,2.10
2022-12-11T05:08:02.163Z,2.38
2022-12-11T05:08:58.781Z,2.25
2022-12-11T05:09:55.410Z,2.22
2022-12-11T05:11:12.822Z,2.10
2022-12-11T05:12:09.498Z,2.10
2022-12-11T05:13:06.174Z,2.40
2022-12-11T05:14:02.750Z,2.28
2022-12-11T05:14:59.326Z,2.15
2022-12-11T05:15:56.805Z,2.40
2022-12-11T05:16:53.467Z,2.17
2022-12-11T05:17:50.072Z,2.10
2022-12-11T05:18:47.533Z,2.65
2022-12-11T05:19:44.122Z,2.30
2022-12-11T05:20:40.740Z,1.95
2022-12-11T05:21:37.346Z,2.38
2022-12-11T05:22:33.934Z,2.35
2022-12-11T05:23:30.730Z,1.95
2022-12-11T05:24:27.337Z,2.20
2022-12-11T05:25:23.959Z,2.30
2022-12-11T05:26:21.303Z,2.22
2022-12-11T05:27:17.991Z,2.00
2022-12-11T05:28:14.588Z,2.00
2022-12-11T05:29:11.176Z,2.20
2022-12-11T05:30:08.610Z,2.42
2022-12-11T05:31:17.424Z,2.08
2022-12-11T05:32:14.026Z,2.08
2022-12-11T05:33:10.552Z,2.13
2022-12-11T05:34:07.140Z,2.55
2022-12-11T05:35:04.003Z,2.03
2022-12-11T05:36:01.263Z,2.25
2022-12-11T05:36:57.907Z,1.75
2022-12-11T05:37:54.659Z,2.40
2022-12-11T05:38:51.997Z,2.30
2022-12-11T05:39:49.561Z,2.00
2022-12-11T05:40:56.250Z,2.70
2022-12-11T05:41:52.959Z,2.78
2022-12-11T05:42:49.662Z,2.40
2022-12-11T05:43:46.639Z,3.30
2022-12-11T05:44:43.272Z,3.20
2022-12-11T05:45:39.831Z,2.33
2022-12-11T05:46:36.443Z,2.47
2022-12-11T05:47:33.180Z,1.88
2022-12-11T05:48:29.796Z,2.30
2022-12-11T05:49:30.796Z,2.22
2022-12-11T05:50:27.843Z,2.80
2022-12-11T05:51:25.226Z,2.85
2022-12-11T05:52:21.853Z,2.88
2022-12-11T05:53:18.446Z,2.20
2022-12-11T05:54:15.082Z,2.00
2022-12-11T05:55:12.078Z,2.17
2022-12-11T05:56:16.086Z,2.65
2022-12-11T05:57:12.750Z,2.83
2022-12-11T05:58:09.399Z,2.25
2022-12-11T05:59:06.615Z,2.38
2022-12-11T06:00:05.724Z,2.20
2022-12-11T06:01:06.951Z,2.50
2022-12-11T06:02:03.696Z,2.35
2022-12-11T06:03:00.933Z,2.22
2022-12-11T06:03:58.597Z,2.70
2022-12-11T06:04:55.158Z,2.58
2022-12-11T06:05:51.708Z,2.67
2022-12-11T06:06:48.285Z,2.70
2022-12-11T06:07:44.990Z,2.42
2022-12-11T06:08:41.675Z,2.60
2022-12-11T06:09:38.283Z,2.13
2022-12-11T06:10:34.994Z,2.50
2022-12-11T06:11:33.487Z,2.05
2022-12-11T06:12:31.120Z,2.00
2022-12-11T06:13:27.795Z,2.17
2022-12-11T06:14:24.446Z,2.40
2022-12-11T06:15:21.058Z,2.10
2022-12-11T06:16:17.763Z,2.10
2022-12-11T06:17:14.366Z,2.67
2022-12-11T06:18:11.029Z,2.30
2022-12-11T06:19:12.998Z,3.13
2022-12-11T06:20:09.953Z,2.85
2022-12-11T06:21:13.467Z,2.28
2022-12-11T06:22:10.038Z,2.20
2022-12-11T06:23:06.734Z,2.15
2022-12-11T06:24:04.051Z,2.50
2022-12-11T06:25:00.646Z,2.78
2022-12-11T06:25:57.195Z,2.40
2022-12-11T06:26:53.804Z,2.60
2022-12-11T06:27:50.771Z,2.55
2022-12-11T06:28:48.226Z,2.20
2022-12-11T06:29:44.861Z,2.00
2022-12-11T06:30:41.461Z,1.85
2022-12-11T06:31:38.063Z,2.80
2022-12-11T06:32:34.672Z,2.35
2022-12-11T06:33:32.611Z,2.50
2022-12-11T06:34:29.315Z,2.45
2022-12-11T06:35:26.373Z,2.20
2022-12-11T06:36:24.339Z,2.53
2022-12-11T06:37:21.012Z,2.60
2022-12-11T06:38:17.712Z,2.30
2022-12-11T06:39:14.332Z,2.92
2022-12-11T06:40:12.919Z,2.33
2022-12-11T06:41:10.115Z,2.60
2022-12-11T06:42:06.822Z,2.63
2022-12-11T06:43:03.616Z,2.55
2022-12-11T06:44:00.424Z,2.83
2022-12-11T06:44:59.752Z,2.95
2022-12-11T06:46:02.081Z,2.65
2022-12-11T06:47:00.223Z,2.85
2022-12-11T06:47:56.896Z,3.13
2022-12-11T06:48:53.503Z,2.75
2022-12-11T06:49:50.182Z,2.95
2022-12-11T06:50:47.104Z,2.72
2022-12-11T06:51:43.690Z,2.50
2022-12-11T06:52:40.387Z,2.45
2022-12-11T06:53:37.131Z,2.45
2022-12-11T06:54:33.829Z,3.03
2022-12-11T06:55:30.497Z,3.08
2022-12-11T06:56:27.114Z,3.10
2022-12-11T06:57:24.139Z,4.20
2022-12-11T06:58:20.734Z,3.80
2022-12-11T06:59:18.463Z,3.00
2022-12-11T07:00:15.579Z,3.28
2022-12-11T07:01:18.553Z,3.67
2022-12-11T07:02:16.970Z,2.85
2022-12-11T07:03:13.863Z,2.85
2022-12-11T07:04:10.512Z,2.40
2022-12-11T07:05:07.515Z,2.67
2022-12-11T07:06:04.383Z,2.35
2022-12-11T07:07:00.947Z,3.30
2022-12-11T07:07:57.977Z,2.70
2022-12-11T07:08:54.769Z,2.30
2022-12-11T07:09:51.456Z,2.97
2022-12-11T07:10:48.356Z,2.47
2022-12-11T07:11:45.093Z,2.63
2022-12-11T07:12:41.774Z,2.63
2022-12-11T07:13:38.713Z,2.40
2022-12-11T07:14:35.332Z,2.30
2022-12-11T07:15:33.604Z,2.42
2022-12-11T07:16:33.164Z,2.15
2022-12-11T07:17:30.373Z,2.25
2022-12-11T07:18:27.088Z,2.97
2022-12-11T07:19:24.465Z,2.40
2022-12-11T07:20:21.083Z,2.63
2022-12-11T07:21:18.885Z,2.20
2022-12-11T07:22:15.531Z,2.17
2022-12-11T07:23:12.130Z,2.60
2022-12-11T07:24:09.549Z,2.10
2022-12-11T07:25:06.489Z,2.53
2022-12-11T07:26:08.090Z,2.33
2022-12-11T07:27:05.013Z,2.70
2022-12-11T07:28:01.574Z,2.72
2022-12-11T07:28:59.077Z,2.10
2022-12-11T07:29:55.889Z,3.20
2022-12-11T07:30:52.449Z,3.17
2022-12-11T07:31:49.110Z,3.00
2022-12-11T07:32:45.760Z,2.70
2022-12-11T07:33:43.247Z,2.40
2022-12-11T07:34:40.105Z,2.40
2022-12-11T07:35:37.169Z,2.03
2022-12-11T07:36:33.916Z,2.72
2022-12-11T07:37:30.658Z,2.33
2022-12-11T07:38:27.212Z,2.40
2022-12-11T07:39:24.286Z,2.40
2022-12-11T07:40:21.033Z,2.10
2022-12-11T07:41:17.913Z,2.42
2022-12-11T07:42:14.584Z,2.22
2022-12-11T07:43:11.147Z,2.60
2022-12-11T07:44:07.806Z,2.65
2022-12-11T07:45:04.813Z,2.20
2022-12-11T07:46:03.410Z,2.47
2022-12-11T07:47:00.091Z,2.85
2022-12-11T07:47:56.782Z,2.22
2022-12-11T07:48:54.027Z,2.10
2022-12-11T07:49:50.679Z,2.47
2022-12-11T07:50:47.310Z,2.05
2022-12-11T07:51:43.936Z,1.98
2022-12-11T07:52:40.625Z,2.03
2022-12-11T07:53:37.329Z,2.35
2022-12-11T07:54:33.968Z,2.00
2022-12-11T07:55:32.043Z,2.05
2022-12-11T07:56:30.021Z,1.80
2022-12-11T07:57:27.861Z,2.15
2022-12-11T07:58:24.434Z,2.00
2022-12-11T07:59:21.303Z,2.30
2022-12-11T08:00:18.262Z,2.47
2022-12-11T08:01:26.171Z,1.80
2022-12-11T08:02:22.892Z,2.10
2022-12-11T08:03:19.681Z,1.92
2022-12-11T08:04:16.346Z,2.42
2022-12-11T08:05:13.357Z,1.73
2022-12-11T08:06:10.517Z,1.83
2022-12-11T08:07:07.120Z,2.50
2022-12-11T08:08:03.933Z,1.73
2022-12-11T08:09:01.952Z,2.53
2022-12-11T08:09:58.507Z,2.17
2022-12-11T08:10:55.159Z,2.10
2022-12-11T08:11:52.031Z,2.15
2022-12-11T08:12:48.683Z,3.13
2022-12-11T08:13:45.566Z,1.92
2022-12-11T08:14:42.187Z,2.53
2022-12-11T08:15:38.797Z,2.35
2022-12-11T08:16:35.579Z,2.47
2022-12-11T08:17:38.263Z,2.40
2022-12-11T08:18:37.763Z,2.40
2022-12-11T08:19:34.696Z,2.40
2022-12-11T08:20:31.395Z,2.20
2022-12-11T08:21:28.790Z,2.30
2022-12-11T08:22:25.641Z,2.10
2022-12-11T08:23:22.307Z,2.55
2022-12-11T08:24:20.907Z,2.30
2022-12-11T08:25:17.645Z,2.33
2022-12-11T08:26:17.170Z,2.08
2022-12-11T08:27:13.823Z,2.22
2022-12-11T08:28:10.404Z,2.20
2022-12-11T08:29:07.039Z,2.58
2022-12-11T08:30:04.428Z,2.35
2022-12-11T08:31:04.970Z,2.40
2022-12-11T08:32:01.590Z,2.42
2022-12-11T08:32:59.835Z,2.40
2022-12-11T08:33:58.238Z,2.38
2022-12-11T08:34:54.820Z,3.17
2022-12-11T08:35:51.402Z,3.10
2022-12-11T08:36:48.290Z,2.53
2022-12-11T08:37:44.867Z,2.60
2022-12-11T08:38:42.486Z,2.80
2022-12-11T08:39:39.155Z,2.47
2022-12-11T08:40:35.757Z,2.20
2022-12-11T08:41:32.355Z,2.55
2022-12-11T08:42:29.027Z,2.30
2022-12-11T08:43:25.733Z,2.60
2022-12-11T08:44:25.018Z,2.25
2022-12-11T08:45:21.735Z,2.20
2022-12-11T08:46:18.363Z,2.60
2022-12-11T08:47:15.599Z,2.42
2022-12-11T08:48:12.276Z,1.95
2022-12-11T08:49:10.416Z,2.00
2022-12-11T08:50:07.153Z,2.22
2022-12-11T08:51:06.946Z,2.13
2022-12-11T08:52:04.959Z,1.95
2022-12-11T08:53:01.773Z,2.13
2022-12-11T08:54:00.889Z,1.80
2022-12-11T08:54:58.441Z,2.15
2022-12-11T08:55:55.059Z,2.10
2022-12-11T08:56:57.641Z,2.70
2022-12-11T08:57:55.359Z,2.15
2022-12-11T08:58:52.913Z,1.70
2022-12-11T08:59:49.616Z,2.25
2022-12-11T09:00:46.337Z,1.88
2022-12-11T09:01:43.103Z,1.70
2022-12-11T09:02:39.738Z,1.55
2022-12-11T09:03:37.556Z,1.50
2022-12-11T09:04:34.255Z,1.95
2022-12-11T09:05:30.964Z,1.63
2022-12-11T09:06:29.703Z,1.88
2022-12-11T09:07:26.605Z,1.55
2022-12-11T09:08:23.232Z,1.98
2022-12-11T09:09:19.838Z,1.85
2022-12-11T09:10:16.469Z,2.33
2022-12-11T09:11:16.730Z,2.30
2022-12-11T09:12:13.971Z,1.80
2022-12-11T09:13:10.531Z,1.60
2022-12-11T09:14:08.275Z,1.63
2022-12-11T09:15:05.470Z,1.48
2022-12-11T09:16:05.376Z,2.05
2022-12-11T09:17:02.020Z,1.85
2022-12-11T09:17:58.610Z,1.70
2022-12-11T09:18:57.790Z,1.90
2022-12-11T09:19:54.447Z,1.60
2022-12-11T09:21:07.191Z,2.10
2022-12-11T09:22:03.819Z,2.38
2022-12-11T09:23:01.507Z,1.80
2022-12-11T09:24:00.958Z,1.67
2022-12-11T09:24:57.542Z,2.08
2022-12-11T09:25:54.392Z,1.50
2022-12-11T09:26:50.974Z,1.70
2022-12-11T09:27:47.597Z,2.20
2022-12-11T09:28:47.039Z,1.90
2022-12-11T09:29:43.920Z,2.20
2022-12-11T09:30:40.503Z,2.30
2022-12-11T09:31:37.523Z,2.60
2022-12-11T09:32:34.126Z,3.13
2022-12-11T09:33:30.709Z,3.05
2022-12-11T09:34:29.354Z,2.00
2022-12-11T09:35:26.286Z,2.15
2022-12-11T09:36:23.112Z,2.67
2022-12-11T09:37:19.633Z,2.22
2022-12-11T09:38:16.168Z,2.10
2022-12-11T09:39:14.387Z,2.42
2022-12-11T09:40:12.904Z,1.98
2022-12-11T09:41:35.111Z,2.40
2022-12-11T09:42:52.776Z,2.72
2022-12-11T09:44:17.116Z,2.45
2022-12-11T09:45:16.022Z,2.08
2022-12-11T09:46:17.568Z,2.05
2022-12-11T09:47:21.148Z,2.57
2022-12-11T09:48:24.242Z,2.72
2022-12-11T09:49:33.873Z,2.55
2022-12-11T09:50:34.415Z,3.08
2022-12-11T09:51:47.933Z,2.55
2022-12-11T09:52:53.822Z,2.95
2022-12-11T09:53:51.699Z,2.92
2022-12-11T09:54:52.646Z,2.67
2022-12-11T09:55:55.003Z,2.80
2022-12-11T09:57:15.836Z,2.55
2022-12-11T09:58:51.060Z,2.75
2022-12-11T10:00:12.420Z,2.72
2022-12-11T10:01:26.304Z,2.78
2022-12-11T10:02:44.087Z,2.85
2022-12-11T10:03:52.159Z,2.50
2022-12-11T10:05:03.108Z,2.92
2022-12-11T10:06:04.789Z,3.00
2022-12-11T10:07:37.464Z,2.95
2022-12-11T10:09:07.626Z,2.70
2022-12-11T10:10:13.169Z,3.03
2022-12-11T10:11:56.804Z,2.80
2022-12-11T10:12:59.587Z,1.77
2022-12-11T10:14:01.879Z,2.20
2022-12-11T10:15:16.959Z,2.38
2022-12-11T10:16:44.161Z,2.38
2022-12-11T10:17:44.665Z,2.45
2022-12-11T10:18:42.173Z,1.88
2022-12-11T10:19:41.170Z,2.22
2022-12-11T10:20:40.434Z,2.33
2022-12-11T10:21:41.728Z,1.55
2022-12-11T10:22:38.519Z,1.38
2022-12-11T10:24:00.519Z,1.75
2022-12-11T10:25:23.044Z,1.45
2022-12-11T10:26:20.058Z,1.90
2022-12-11T10:27:22.366Z,1.42
2022-12-11T10:28:20.642Z,1.60
2022-12-11T10:29:17.409Z,1.60
2022-12-11T10:30:17.060Z,1.70
2022-12-11T10:31:21.030Z,1.95
2022-12-11T10:32:28.696Z,1.98
2022-12-11T10:33:59.461Z,1.95
2022-12-11T10:35:01.416Z,2.00
2022-12-11T10:35:58.339Z,2.13
2022-12-11T10:37:00.279Z,2.63
2022-12-11T10:38:11.180Z,2.33
2022-12-11T10:39:19.837Z,2.05
2022-12-11T10:40:18.336Z,2.00
2022-12-11T10:41:21.098Z,1.90
2022-12-11T10:42:20.972Z,2.08
2022-12-11T10:43:17.636Z,2.20
2022-12-11T10:44:19.480Z,1.77
2022-12-11T10:45:16.494Z,2.05
2022-12-11T10:46:18.406Z,1.80
2022-12-11T10:47:18.483Z,2.45
2022-12-11T10:48:15.106Z,1.88
2022-12-11T10:49:26.697Z,2.15
2022-12-11T10:50:26.189Z,1.98
2022-12-11T10:51:25.930Z,2.00
2022-12-11T10:52:26.411Z,2.13
2022-12-11T10:53:24.297Z,1.85
2022-12-11T10:54:40.070Z,2.22
2022-12-11T10:55:48.142Z,1.70
2022-12-11T10:56:48.490Z,2.30
2022-12-11T10:57:46.199Z,2.05
2022-12-11T10:58:50.617Z,1.90
2022-12-11T10:59:50.177Z,2.42
2022-12-11T11:00:50.493Z,3.00
2022-12-11T11:01:47.684Z,2.45
2022-12-11T11:02:45.990Z,2.50
2022-12-11T11:04:06.179Z,2.70
2022-12-11T11:05:14.197Z,2.97
2022-12-11T11:06:19.544Z,2.72
2022-12-11T11:07:24.153Z,2.75
2022-12-11T11:08:25.247Z,2.25
2022-12-11T11:09:40.468Z,2.47
2022-12-11T11:10:37.155Z,2.47
2022-12-11T11:11:36.978Z,1.95
2022-12-11T11:12:57.641Z,1.63
2022-12-11T11:14:13.142Z,1.77
2022-12-11T11:15:25.106Z,2.00
2022-12-11T11:16:22.621Z,1.63
2022-12-11T11:17:19.267Z,1.90
2022-12-11T11:18:25.389Z,2.00
2022-12-11T11:19:30.209Z,1.98
2022-12-11T11:20:29.887Z,1.80
2022-12-11T11:21:28.430Z,1.98
2022-12-11T11:22:25.145Z,2.00
2022-12-11T11:23:23.883Z,1.48
2022-12-11T11:24:46.345Z,2.00
2022-12-11T11:25:58.341Z,1.80
2022-12-11T11:28:21.414Z,1.60
2022-12-11T11:29:31.032Z,1.70
2022-12-11T11:30:31.067Z,1.67
2022-12-11T11:31:34.335Z,1.80
2022-12-11T11:32:39.899Z,1.60
2022-12-11T11:33:45.431Z,1.80
2022-12-11T11:34:42.090Z,1.50
2022-12-11T11:35:40.169Z,1.77
2022-12-11T11:36:39.467Z,1.90
2022-12-11T11:37:36.309Z,1.95
2022-12-11T11:38:50.296Z,2.00
2022-12-11T11:39:48.069Z,1.65
2022-12-11T11:41:15.096Z,1.67
2022-12-11T11:42:27.866Z,2.08
2022-12-11T11:43:45.161Z,1.80
2022-12-11T11:44:59.564Z,1.75
2022-12-11T11:46:01.878Z,1.80
2022-12-11T11:47:13.142Z,1.67
2022-12-11T11:48:28.291Z,1.85
2022-12-11T11:49:44.549Z,1.88
2022-12-11T11:50:46.130Z,1.60
2022-12-11T11:52:14.675Z,1.70
2022-12-11T11:53:23.316Z,1.80
2022-12-11T11:54:40.163Z,1.60
2022-12-11T11:56:01.872Z,1.95
2022-12-11T11:57:01.570Z,2.42
2022-12-11T11:58:14.896Z,2.08
2022-12-11T11:59:23.341Z,1.98
2022-12-11T12:00:30.350Z,2.00
2022-12-11T12:01:30.502Z,2.13
2022-12-11T12:02:27.919Z,1.60
2022-12-11T12:03:25.794Z,1.80
2022-12-11T12:04:22.854Z,1.60
2022-12-11T12:05:27.077Z,1.90
2022-12-11T12:06:23.665Z,1.90
2022-12-11T12:07:41.054Z,1.98
2022-12-11T12:08:52.567Z,1.70
2022-12-11T12:10:01.408Z,2.42
2022-12-11T12:11:16.737Z,1.70
2022-12-11T12:12:33.778Z,1.80
2022-12-11T12:13:49.605Z,1.70
2022-12-11T12:15:02.147Z,1.70
2022-12-11T12:16:01.445Z,1.60
2022-12-11T12:17:14.330Z,1.95
2022-12-11T12:18:33.753Z,1.80
2022-12-11T12:19:54.623Z,1.45
2022-12-11T12:20:51.236Z,1.60
2022-12-11T12:21:52.049Z,1.60
2022-12-11T12:23:00.459Z,1.65
2022-12-11T12:24:32.262Z,1.85
2022-12-11T12:25:36.180Z,1.58
2022-12-11T12:26:47.102Z,1.80
2022-12-11T12:27:59.537Z,1.90
2022-12-11T12:29:43.610Z,2.33
2022-12-11T12:30:56.186Z,2.50
2022-12-11T12:32:07.746Z,2.90
2022-12-11T12:33:39.222Z,3.05
2022-12-11T12:34:50.734Z,3.10
2022-12-11T12:36:29.112Z,3.22
2022-12-11T12:37:54.826Z,3.92
2022-12-11T12:38:54.818Z,4.30
2022-12-11T12:40:13.414Z,4.60
2022-12-11T12:41:26.271Z,4.65
2022-12-11T12:42:55.068Z,4.38
2022-12-11T12:44:18.358Z,4.38
2022-12-11T12:45:15.108Z,4.15
2022-12-11T12:46:38.294Z,3.53
2022-12-11T12:47:36.759Z,3.33
2022-12-11T12:48:34.199Z,2.70
2022-12-11T12:49:33.561Z,2.47
2022-12-11T12:50:46.463Z,3.20
2022-12-11T12:51:44.569Z,3.25
2022-12-11T12:52:42.075Z,2.60
2022-12-11T12:53:39.721Z,2.80
2022-12-11T12:54:38.438Z,2.67
2022-12-11T12:55:36.414Z,2.88
2022-12-11T12:56:33.788Z,3.03
2022-12-11T12:57:32.584Z,2.47
2022-12-11T12:58:39.904Z,3.25
2022-12-11T12:59:36.637Z,3.15
2022-12-11T13:00:44.041Z,3.40
2022-12-11T13:01:48.366Z,3.50
2022-12-11T13:02:53.891Z,3.35
2022-12-11T13:04:03.137Z,3.70
2022-12-11T13:05:07.449Z,3.90
2022-12-11T13:06:10.696Z,3.55
2022-12-11T13:07:18.538Z,3.78
2022-12-11T13:08:25.142Z,3.88
2022-12-11T13:09:26.965Z,3.78
2022-12-11T13:10:25.619Z,3.85
2022-12-11T13:11:32.384Z,3.55
2022-12-11T13:12:41.028Z,3.88
2022-12-11T13:13:54.960Z,4.32
2022-12-11T13:14:56.944Z,4.05
2022-12-11T13:15:53.534Z,3.53
2022-12-11T13:16:52.627Z,3.65
2022-12-11T13:17:49.286Z,3.00
2022-12-11T13:18:48.236Z,2.72
2022-12-11T13:19:44.854Z,2.72
2022-12-11T13:20:51.208Z,2.33
2022-12-11T13:22:12.908Z,2.92
2022-12-11T13:23:18.235Z,3.72
2022-12-11T13:24:14.927Z,4.25
2022-12-11T13:25:36.269Z,3.40
2022-12-11T13:26:37.039Z,2.10
2022-12-11T13:27:39.900Z,3.45
2022-12-11T13:28:40.473Z,2.47
2022-12-11T13:29:40.075Z,1.80
2022-12-11T13:30:37.262Z,1.60
2022-12-11T13:31:39.200Z,1.30
2022-12-11T13:32:36.670Z,1.17
2022-12-11T13:33:40.844Z,1.02
2022-12-11T13:34:40.623Z,1.17
2022-12-11T13:35:37.331Z,1.25